Time;durP1;ratioP1;P1;durP2;ratioP2;P2;SDS_P1;SDS_P2;PMS_P1;PMS_P2;Temp;Humidity;BMP_temperature;BMP_pressure;BME280_temperature;BME280_humidity;BME280_pressure;Samples;Min_cycle;Max_cycle;Signal;HPM_P1;HPM_P2
2022/04/22 00:01:13;;;;;;;;;;;;;;;4.20;93.99;97689.50;3224187;23;20327;-85
2022/04/22 00:02:28;;;;;;;;;;;;;;;4.27;93.16;97687.66;3224201;23;19923;-81
2022/04/22 00:03:44;;;;;;;;;;;;;;;4.31;93.59;97687.56;3224238;23;19924;-82
2022/04/22 00:04:59;;;;;;;;;;;;;;;4.41;93.62;97687.44;3224174;23;19924;-81
2022/04/22 00:06:15;;;;;;;;;;;;;;;4.45;93.24;97689.09;3224469;23;20134;-87
2022/04/22 00:07:30;;;;;;;;;;;;;;;4.50;93.28;97689.91;3224335;23;19923;-86
2022/04/22 00:08:46;;;;;;;;;;;;;;;4.58;93.03;97688.03;3224120;22;19924;-81
2022/04/22 00:10:01;;;;;;;;;;;;;;;4.59;93.15;97684.53;3224301;23;19931;-81
2022/04/22 00:11:29;;;;;;;;;;;;;;;4.60;92.94;97680.22;3224029;23;19966;-81
2022/04/22 00:12:44;;;;;;;;;;;;;;;4.65;92.81;97681.88;3229095;22;19931;-83
2022/04/22 00:14:01;;;;;;;;;;;;;;;4.69;92.52;97676.63;3224248;22;19923;-81
2022/04/22 00:15:17;;;;;;;;;;;;;;;4.70;92.31;97674.03;3224580;22;19920;-81
2022/04/22 00:16:32;;;;;;;;;;;;;;;4.70;92.33;97670.56;3224312;22;19927;-82
2022/04/22 00:17:50;;;;;;;;;;;;;;;4.71;92.38;97670.53;3224203;23;19929;-82
2022/04/22 00:19:06;;;;;;;;;;;;;;;4.76;91.92;97671.31;3223538;22;19926;-81
2022/04/22 00:20:22;;;;;;;;;;;;;;;4.73;91.68;97662.72;3223724;22;20643;-82
2022/04/22 00:21:41;;;;;;;;;;;;;;;4.73;91.74;97662.72;3223993;22;19969;-81
2022/04/22 00:22:57;;;;;;;;;;;;;;;4.76;91.85;97665.28;3223785;22;19923;-82
2022/04/22 00:24:13;;;;;;;;;;;;;;;4.75;91.91;97659.22;3223880;23;20305;-81
2022/04/22 00:25:28;;;;;;;;;;;;;;;4.75;92.09;97659.22;3224319;22;20331;-81
2022/04/22 00:26:43;;;;;;;;;;;;;;;4.72;91.67;97656.69;3223997;23;20346;-81
2022/04/22 00:27:59;;;;;;;;;;;;;;;4.71;92.07;97659.31;3224234;23;20596;-82
2022/04/22 00:29:14;;;;;;;;;;;;;;;4.70;91.70;97653.28;3223977;23;19935;-81
2022/04/22 00:30:30;;;;;;;;;;;;;;;4.69;91.85;97648.09;3224236;23;20290;-81
2022/04/22 00:31:45;;;;;;;;;;;;;;;4.72;91.81;97651.50;3223665;22;19959;-85
2022/04/22 00:33:01;;;;;;;;;;;;;;;4.72;91.34;97648.91;3223841;23;19924;-84
2022/04/22 00:34:16;;;;;;;;;;;;;;;4.70;91.61;97648.09;3224185;23;19939;-82
2022/04/22 00:35:32;;;;;;;;;;;;;;;4.65;91.60;97650.75;3223953;23;19927;-82
2022/04/22 00:36:47;;;;;;;;;;;;;;;4.60;91.36;97644.78;3224594;22;19950;-81
2022/04/22 00:38:03;;;;;;;;;;;;;;;4.56;91.87;97647.47;3224189;23;19924;-81
2022/04/22 00:39:18;;;;;;;;;;;;;;;4.52;92.24;97644.06;3224072;23;19924;-82
2022/04/22 00:40:34;;;;;;;;;;;;;;;4.49;91.98;97649.31;3223720;23;19923;-83
2022/04/22 00:41:49;;;;;;;;;;;;;;;4.48;91.77;97640.66;3224239;22;19923;-83
2022/04/22 00:43:18;;;;;;;;;;;;;;;4.47;91.80;97640.69;3223675;23;19923;-81
2022/04/22 00:44:33;;;;;;;;;;;;;;;4.46;92.01;97641.56;3223847;22;19923;-81
2022/04/22 00:45:49;;;;;;;;;;;;;;;4.42;92.10;97648.56;3223888;22;19924;-81
2022/04/22 00:47:05;;;;;;;;;;;;;;;4.48;91.92;97643.25;3224056;22;19923;-81
2022/04/22 00:48:21;;;;;;;;;;;;;;;4.48;91.67;97647.59;3224263;23;19930;-81
2022/04/22 00:49:36;;;;;;;;;;;;;;;4.41;91.56;97645.97;3223695;22;20034;-81
2022/04/22 00:50:52;;;;;;;;;;;;;;;4.35;91.75;97645.19;3224283;23;19927;-82
2022/04/22 00:52:08;;;;;;;;;;;;;;;4.37;91.87;97643.44;3224256;23;19923;-84
2022/04/22 00:53:25;;;;;;;;;;;;;;;4.40;91.62;97641.66;3223704;22;20346;-82
2022/04/22 00:54:40;;;;;;;;;;;;;;;4.40;91.55;97646.84;3223694;22;20348;-84
2022/04/22 00:55:56;;;;;;;;;;;;;;;4.34;91.82;97635.72;3223656;22;19965;-82
2022/04/22 00:57:12;;;;;;;;;;;;;;;4.31;91.90;97638.34;3224039;22;20225;-81
2022/04/22 00:58:27;;;;;;;;;;;;;;;4.26;91.87;97637.56;3223869;22;19924;-82
2022/04/22 00:59:43;;;;;;;;;;;;;;;4.19;91.99;97641.13;3223764;23;19920;-81
2022/04/22 01:00:59;;;;;;;;;;;;;;;4.14;92.00;97640.34;3223881;23;19942;-80
2022/04/22 01:02:14;;;;;;;;;;;;;;;4.09;92.39;97633.50;3223713;22;19927;-81
2022/04/22 01:03:29;;;;;;;;;;;;;;;4.04;92.56;97626.69;3223662;22;20265;-80
2022/04/22 01:11:02;;;;;;;;;;;;;;;3.87;93.40;97614.84;3223472;23;20117;-83
2022/04/22 01:12:18;;;;;;;;;;;;;;;3.85;93.37;97607.97;3224013;22;19957;-83
2022/04/22 01:13:34;;;;;;;;;;;;;;;3.84;93.30;97614.84;3223988;22;19923;-81
2022/04/22 01:14:49;;;;;;;;;;;;;;;3.84;92.42;97612.25;3223977;23;20337;-81
2022/04/22 01:16:04;;;;;;;;;;;;;;;3.81;92.72;97608.00;3223518;23;20003;-81
2022/04/22 01:17:20;;;;;;;;;;;;;;;3.74;92.73;97614.13;3223096;23;19938;-83
2022/04/22 01:18:37;;;;;;;;;;;;;;;3.68;92.84;97614.22;3223692;22;19923;-79
2022/04/22 01:19:53;;;;;;;;;;;;;;;3.67;92.95;97612.53;3223603;22;19924;-81
2022/04/22 01:21:09;;;;;;;;;;;;;;;3.67;92.74;97612.53;3223773;22;19924;-81
2022/04/22 01:22:24;;;;;;;;;;;;;;;3.64;92.46;97615.16;3223474;23;19961;-82
2022/04/22 01:23:40;;;;;;;;;;;;;;;3.67;92.96;97609.94;3223852;22;19974;-81
2022/04/22 01:24:56;;;;;;;;;;;;;;;3.64;92.97;97607.41;3224050;23;19924;-80
2022/04/22 01:26:13;;;;;;;;;;;;;;;3.53;92.99;97605.78;3223709;22;19935;-81
2022/04/22 01:27:31;;;;;;;;;;;;;;;3.49;93.02;97603.25;3223411;22;19961;-84
2022/04/22 01:28:47;;;;;;;;;;;;;;;3.47;93.01;97600.69;3223371;22;19923;-81
2022/04/22 01:30:04;;;;;;;;;;;;;;;3.46;92.91;97601.56;3223607;22;19945;-81
2022/04/22 01:31:21;;;;;;;;;;;;;;;3.47;93.86;97598.09;3223280;22;19957;-81
2022/04/22 01:32:37;;;;;;;;;;;;;;;3.49;93.69;97596.38;3223315;22;19928;-82
2022/04/22 01:33:52;;;;;;;;;;;;;;;3.58;94.24;97599.69;3223561;22;19928;-80
2022/04/22 01:35:07;;;;;;;;;;;;;;;3.59;93.03;97596.22;3223902;23;19951;-81
2022/04/22 01:36:23;;;;;;;;;;;;;;;3.58;93.49;97594.53;3223176;22;20247;-81
2022/04/22 01:37:38;;;;;;;;;;;;;;;3.56;93.14;97585.91;3223533;23;19930;-81
2022/04/22 01:38:55;;;;;;;;;;;;;;;3.58;94.09;97591.94;3223796;22;19927;-81
2022/04/22 01:40:11;;;;;;;;;;;;;;;3.66;94.49;97592.69;3223350;22;19928;-81
2022/04/22 01:41:27;;;;;;;;;;;;;;;3.68;94.11;97586.59;3223545;22;19923;-80
2022/04/22 01:42:42;;;;;;;;;;;;;;;3.63;93.81;97584.94;3223599;22;19942;-82
2022/04/22 01:43:58;;;;;;;;;;;;;;;3.55;93.48;97587.63;3223993;22;19919;-81
2022/04/22 01:45:13;;;;;;;;;;;;;;;3.53;92.78;97584.22;3224254;23;19938;-81
2022/04/22 01:46:29;;;;;;;;;;;;;;;3.44;92.91;97580.03;3223783;22;19942;-81
2022/04/22 01:47:44;;;;;;;;;;;;;;;3.39;92.64;97582.66;3223613;23;20344;-80
2022/04/22 01:49:01;;;;;;;;;;;;;;;3.36;92.93;97581.88;3223493;23;19942;-81
2022/04/22 01:50:17;;;;;;;;;;;;;;;3.27;92.72;97585.41;3223755;22;19924;-82
2022/04/22 01:51:32;;;;;;;;;;;;;;;3.19;92.40;97584.66;3223726;22;19934;-83
2022/04/22 01:52:49;;;;;;;;;;;;;;;3.10;92.44;97589.06;3222942;23;20433;-83
2022/04/22 01:54:04;;;;;;;;;;;;;;;3.08;93.24;97584.81;3223919;22;19919;-80
2022/04/22 01:55:20;;;;;;;;;;;;;;;3.10;93.49;97583.88;3224822;22;20022;-84
2022/04/22 01:56:35;;;;;;;;;;;;;;;3.11;93.01;97587.34;3224310;23;19949;-81
2022/04/22 01:57:50;;;;;;;;;;;;;;;3.03;92.35;97590.03;3224126;23;19942;-84
2022/04/22 01:59:07;;;;;;;;;;;;;;;2.97;92.34;97585.78;3224345;22;19924;-81
2022/04/22 02:00:22;;;;;;;;;;;;;;;2.95;92.17;97582.34;3224665;22;19955;-82
2022/04/22 02:01:37;;;;;;;;;;;;;;;2.90;92.26;97576.38;3224351;23;19939;-81
2022/04/22 02:02:53;;;;;;;;;;;;;;;2.88;92.72;97580.69;3224565;23;19991;-81
2022/04/22 02:04:08;;;;;;;;;;;;;;;2.96;93.73;97578.03;3224831;23;20481;-81
2022/04/22 02:05:23;;;;;;;;;;;;;;;2.94;93.27;97574.59;3224885;23;20232;-81
2022/04/22 02:06:39;;;;;;;;;;;;;;;2.94;93.33;97578.06;3224652;23;19923;-81
2022/04/22 02:07:54;;;;;;;;;;;;;;;2.92;93.08;97576.34;3224690;23;19919;-81
2022/04/22 02:09:10;;;;;;;;;;;;;;;2.89;93.19;97577.25;3225064;23;20385;-81
2022/04/22 02:10:27;;;;;;;;;;;;;;;2.89;93.40;97577.25;3224468;23;19919;-81
2022/04/22 02:11:42;;;;;;;;;;;;;;;2.86;93.27;97576.41;3224987;22;19927;-81
2022/04/22 02:12:57;;;;;;;;;;;;;;;2.86;93.42;97581.56;3225130;23;19945;-83
2022/04/22 02:14:13;;;;;;;;;;;;;;;2.86;93.61;97572.09;3224774;23;20469;-81
2022/04/22 02:15:28;;;;;;;;;;;;;;;2.72;93.24;97569.66;3224960;23;19923;-89
2022/04/22 02:16:44;;;;;;;;;;;;;;;2.56;92.38;97568.97;3224777;23;20345;-83
2022/04/22 02:17:59;;;;;;;;;;;;;;;2.55;92.27;97572.44;3224969;23;19930;-83
2022/04/22 02:19:15;;;;;;;;;;;;;;;2.50;92.31;97564.72;3224738;23;20257;-85
2022/04/22 02:20:30;;;;;;;;;;;;;;;2.51;92.54;97565.56;3224795;23;19924;-81
2022/04/22 02:21:46;;;;;;;;;;;;;;;2.45;92.62;97565.63;3224645;23;19923;-80
2022/04/22 02:23:02;;;;;;;;;;;;;;;2.37;92.58;97563.97;3224358;22;19924;-81
2022/04/22 02:24:17;;;;;;;;;;;;;;;2.34;92.75;97564.00;3224649;23;20338;-81
2022/04/22 02:25:32;;;;;;;;;;;;;;;2.35;93.04;97568.28;3224418;23;19938;-81
2022/04/22 02:28:34;;;;;;;;;;;;;;;2.67;93.59;97566.28;3229488;23;20070;-81
2022/04/22 02:29:49;;;;;;;;;;;;;;;2.72;94.46;97568.81;3229456;22;19950;-84
2022/04/22 02:31:06;;;;;;;;;;;;;;;2.69;94.44;97559.34;3223792;23;19931;-86
2022/04/22 02:32:22;;;;;;;;;;;;;;;2.67;94.05;97561.09;3224319;22;19924;-81
2022/04/22 02:33:38;;;;;;;;;;;;;;;2.65;93.60;97558.56;3224759;23;20413;-81
2022/04/22 02:34:53;;;;;;;;;;;;;;;2.59;93.22;97565.53;3224637;22;19924;-82
2022/04/22 02:36:10;;;;;;;;;;;;;;;2.53;93.05;97559.53;3224359;23;20327;-82
2022/04/22 02:37:25;;;;;;;;;;;;;;;2.50;93.01;97556.09;3229810;22;19923;-81
2022/04/22 02:38:41;;;;;;;;;;;;;;;2.42;92.45;97556.19;3224524;22;19995;-82
2022/04/22 02:39:57;;;;;;;;;;;;;;;2.34;92.22;97548.50;3224731;22;19954;-81
2022/04/22 02:45:54;;;;;;;;;;;;;;;2.10;92.94;97545.28;3229615;23;19930;-82
2022/04/22 02:47:10;;;;;;;;;;;;;;;2.09;93.24;97543.56;3224746;23;19920;-82
2022/04/22 02:48:25;;;;;;;;;;;;;;;2.04;93.16;97545.31;3224474;22;20231;-87
2022/04/22 02:49:44;;;;;;;;;;;;;;;1.98;93.11;97542.81;3224301;22;19935;-82
2022/04/22 02:51:00;;;;;;;;;;;;;;;2.01;93.40;97537.63;3224491;22;19924;-82
2022/04/22 02:52:15;;;;;;;;;;;;;;;1.99;93.57;97539.34;3224256;23;19938;-81
2022/04/22 02:53:30;;;;;;;;;;;;;;;1.98;94.04;97540.22;3224291;23;19923;-81
2022/04/22 02:54:46;;;;;;;;;;;;;;;1.82;93.96;97539.47;3224837;23;19919;-82
2022/04/22 02:56:01;;;;;;;;;;;;;;;1.83;94.54;97538.59;3224724;22;20272;-81
2022/04/22 02:57:17;;;;;;;;;;;;;;;2.01;95.27;97539.31;3224593;23;19955;-80
2022/04/22 02:58:33;;;;;;;;;;;;;;;1.99;95.36;97534.19;3224703;23;19928;-81
2022/04/22 02:59:48;;;;;;;;;;;;;;;2.01;95.11;97535.03;3224396;22;19924;-80
2022/04/22 03:01:04;;;;;;;;;;;;;;;1.99;94.90;97531.63;3224420;22;19937;-84
2022/04/22 03:02:20;;;;;;;;;;;;;;;1.98;94.74;97524.75;3224576;22;19923;-80
2022/04/22 03:03:35;;;;;;;;;;;;;;;2.13;93.59;97528.06;3224792;23;20026;-81
2022/04/22 03:04:51;;;;;;;;;;;;;;;2.24;94.51;97521.91;3224373;22;19928;-80
2022/04/22 03:06:06;;;;;;;;;;;;;;;2.37;95.89;97522.63;3224514;22;19927;-84
2022/04/22 03:07:21;;;;;;;;;;;;;;;2.43;94.75;97513.97;3223983;23;19923;-81
2022/04/22 03:08:37;;;;;;;;;;;;;;;2.41;94.39;97520.88;3224327;23;19923;-81
2022/04/22 03:09:52;;;;;;;;;;;;;;;2.46;95.52;97520.84;3224216;23;19946;-82
2022/04/22 03:11:08;;;;;;;;;;;;;;;2.49;95.23;97518.22;3224475;23;19927;-82
2022/04/22 03:12:23;;;;;;;;;;;;;;;2.48;95.10;97525.13;3224430;23;19923;-82
2022/04/22 03:13:39;;;;;;;;;;;;;;;2.52;94.31;97520.78;3224654;22;19923;-81
2022/04/22 03:14:56;;;;;;;;;;;;;;;2.49;93.94;97525.97;3224857;22;19960;-81
2022/04/22 03:16:11;;;;;;;;;;;;;;;2.53;94.73;97527.66;3224500;22;19973;-84
2022/04/22 03:17:27;;;;;;;;;;;;;;;2.53;94.66;97527.66;3224671;23;19928;-80
2022/04/22 03:18:42;;;;;;;;;;;;;;;2.50;94.87;97525.09;3221585;22;19935;-82
2022/04/22 03:19:58;;;;;;;;;;;;;;;2.55;95.12;97525.94;3224480;23;19923;-83
2022/04/22 03:21:13;;;;;;;;;;;;;;;2.60;94.94;97518.97;3224668;23;20002;-81
2022/04/22 03:22:28;;;;;;;;;;;;;;;2.66;94.64;97521.50;3224204;23;19924;-81
2022/04/22 03:23:44;;;;;;;;;;;;;;;2.69;93.91;97518.00;3224189;23;19924;-81
2022/04/22 03:25:00;;;;;;;;;;;;;;;2.62;93.41;97513.78;3224575;22;19934;-81
2022/04/22 03:26:15;;;;;;;;;;;;;;;2.60;93.87;97513.78;3224455;22;20322;-81
2022/04/22 03:27:31;;;;;;;;;;;;;;;2.57;94.08;97524.19;3224551;23;19958;-81
2022/04/22 03:28:47;;;;;;;;;;;;;;;2.51;94.54;97524.22;3224533;23;19924;-81
2022/04/22 03:30:03;;;;;;;;;;;;;;;2.52;94.75;97523.38;3223255;22;20030;-81
2022/04/22 03:31:18;;;;;;;;;;;;;;;2.45;94.30;97524.31;3223809;22;20254;-86
2022/04/22 03:32:34;;;;;;;;;;;;;;;2.48;94.98;97516.50;3224144;22;19955;-81
2022/04/22 03:33:50;;;;;;;;;;;;;;;2.56;95.36;97519.88;3224279;23;19926;-81
2022/04/22 03:35:06;;;;;;;;;;;;;;;2.57;95.34;97518.13;3224239;22;19949;-81
2022/04/22 03:36:21;;;;;;;;;;;;;;;2.51;95.13;97513.88;3223930;22;19943;-80
2022/04/22 03:37:36;;;;;;;;;;;;;;;2.46;95.11;97520.84;3224066;23;20459;-80
2022/04/22 03:38:52;;;;;;;;;;;;;;;2.45;94.98;97513.97;3224210;23;19990;-81
2022/04/22 03:40:09;;;;;;;;;;;;;;;2.44;95.38;97514.84;3224534;23;19932;-83
2022/04/22 03:41:25;;;;;;;;;;;;;;;2.39;95.38;97507.13;3224268;22;19998;-81
2022/04/22 03:42:41;;;;;;;;;;;;;;;2.46;95.23;97511.38;3223429;23;19934;-81
2022/04/22 03:43:57;;;;;;;;;;;;;;;2.47;95.03;97507.91;3223947;22;19931;-81
2022/04/22 03:45:14;;;;;;;;;;;;;;;2.44;94.90;97512.25;3224412;23;19927;-81
2022/04/22 03:46:30;;;;;;;;;;;;;;;2.57;95.23;97513.84;3223805;22;20023;-81
2022/04/22 03:47:45;;;;;;;;;;;;;;;2.63;95.37;97506.00;3224153;22;19947;-81
2022/04/22 03:49:01;;;;;;;;;;;;;;;2.58;94.62;97512.09;3224198;23;19966;-85
2022/04/22 03:50:16;;;;;;;;;;;;;;;2.51;94.07;97513.88;3224111;22;20258;-82
2022/04/22 03:51:32;;;;;;;;;;;;;;;2.51;94.50;97511.31;3224553;22;19923;-82
2022/04/22 03:52:47;;;;;;;;;;;;;;;2.59;94.31;97506.91;3223879;23;19938;-81
2022/04/22 03:54:03;;;;;;;;;;;;;;;2.62;94.19;97506.88;3224085;23;20216;-88
2022/04/22 03:55:19;;;;;;;;;;;;;;;2.64;92.89;97504.28;3224432;22;19924;-83
2022/04/22 03:58:12;;;;;;;;;;;;;;;2.65;94.93;97509.44;3229242;23;19962;-85
2022/04/22 03:59:27;;;;;;;;;;;;;;;2.61;94.27;97504.34;3223663;22;19952;-81
2022/04/22 04:00:44;;;;;;;;;;;;;;;2.56;94.21;97504.38;3223750;23;19935;-82
2022/04/22 04:01:59;;;;;;;;;;;;;;;2.61;94.40;97514.66;3224142;22;19923;-81
2022/04/22 04:03:15;;;;;;;;;;;;;;;2.58;94.08;97515.53;3224171;23;19938;-81
2022/04/22 04:04:31;;;;;;;;;;;;;;;2.53;94.24;97507.00;3224169;22;19928;-81
2022/04/22 04:05:49;;;;;;;;;;;;;;;2.58;94.71;97510.38;3224490;23;20007;-81
2022/04/22 04:07:04;;;;;;;;;;;;;;;2.57;94.60;97503.50;3223685;22;20383;-84
2022/04/22 04:08:20;;;;;;;;;;;;;;;2.54;94.54;97508.72;3224283;23;19974;-81
2022/04/22 04:16:00;;;;;;;;;;;;;;;2.35;94.41;97503.72;3223840;23;19920;-82
2022/04/22 04:17:16;;;;;;;;;;;;;;;2.33;94.62;97505.47;3223917;22;19930;-81
2022/04/22 04:18:32;;;;;;;;;;;;;;;2.35;94.54;97505.47;3223755;22;20457;-85
2022/04/22 04:23:14;;;;;;;;;;;;;;;2.40;95.28;97507.13;3223539;22;19920;-80
2022/04/22 04:24:30;;;;;;;;;;;;;;;2.35;95.25;97497.72;3224036;22;19924;-81
2022/04/22 04:25:47;;;;;;;;;;;;;;;2.37;95.27;97503.72;3223675;23;19937;-81
2022/04/22 04:27:02;;;;;;;;;;;;;;;2.43;95.10;97507.97;3223792;22;20260;-81
2022/04/22 04:28:18;;;;;;;;;;;;;;;2.45;95.23;97503.63;3223980;22;19941;-80
2022/04/22 04:29:34;;;;;;;;;;;;;;;2.45;95.30;97501.06;3223162;23;19951;-81
2022/04/22 04:30:49;;;;;;;;;;;;;;;2.45;95.55;97501.06;3223463;22;19947;-82
2022/04/22 04:32:06;;;;;;;;;;;;;;;2.40;95.04;97498.50;3223786;23;20472;-81
2022/04/22 04:33:22;;;;;;;;;;;;;;;2.37;94.97;97494.22;3223483;22;19920;-80
2022/04/22 04:34:37;;;;;;;;;;;;;;;2.31;94.78;97496.88;3223665;22;20262;-80
2022/04/22 04:35:53;;;;;;;;;;;;;;;2.26;94.46;97490.91;3223745;23;19962;-82
2022/04/22 04:37:09;;;;;;;;;;;;;;;2.32;94.34;97498.59;3223317;22;20484;-82
2022/04/22 04:38:25;;;;;;;;;;;;;;;2.34;94.80;97496.84;3223126;22;19927;-82
2022/04/22 04:39:41;;;;;;;;;;;;;;;2.33;94.73;97496.88;3223370;22;19923;-79
2022/04/22 04:40:57;;;;;;;;;;;;;;;2.34;95.29;97504.59;3223349;23;20274;-81
2022/04/22 04:42:12;;;;;;;;;;;;;;;2.35;95.54;97501.13;3223104;22;19928;-80
2022/04/22 04:43:28;;;;;;;;;;;;;;;2.35;95.52;97497.72;3223048;23;20111;-81
2022/04/22 04:44:44;;;;;;;;;;;;;;;2.33;95.07;97497.72;3223591;23;19923;-80
2022/04/22 04:45:59;;;;;;;;;;;;;;;2.49;95.81;97500.13;3223555;22;20433;-81
2022/04/22 04:47:15;;;;;;;;;;;;;;;2.54;95.65;97494.03;3223756;22;19923;-80
2022/04/22 04:48:30;;;;;;;;;;;;;;;2.57;95.20;97493.16;3223665;22;19927;-81
2022/04/22 04:49:46;;;;;;;;;;;;;;;2.59;94.90;97498.34;3223681;23;20010;-80
2022/04/22 04:51:02;;;;;;;;;;;;;;;2.63;95.09;97481.91;3224032;22;19958;-80
2022/04/22 04:52:17;;;;;;;;;;;;;;;2.73;94.84;97487.81;3223567;22;19923;-83
2022/04/22 04:53:33;;;;;;;;;;;;;;;2.87;95.20;97488.50;3223850;23;20003;-83
2022/04/22 04:54:50;;;;;;;;;;;;;;;2.92;95.02;97485.88;3223533;22;19969;-82
2022/04/22 04:56:05;;;;;;;;;;;;;;;2.99;95.37;97491.81;3223348;22;19930;-82
2022/04/22 04:57:21;;;;;;;;;;;;;;;3.01;95.01;97492.66;3223501;23;19919;-81
2022/04/22 04:58:36;;;;;;;;;;;;;;;3.03;95.03;97490.88;3223479;23;19941;-81
2022/04/22 04:59:51;;;;;;;;;;;;;;;3.05;94.61;97494.31;3223593;22;19920;-82
2022/04/22 05:01:07;;;;;;;;;;;;;;;3.14;94.87;97493.31;3222635;23;19919;-81
2022/04/22 05:02:22;;;;;;;;;;;;;;;3.17;94.81;97493.31;3222249;23;19963;-82
2022/04/22 05:03:39;;;;;;;;;;;;;;;3.19;94.89;97494.97;3223516;23;20756;-82
2022/04/22 05:04:54;;;;;;;;;;;;;;;3.20;94.53;97493.25;3223473;22;19924;-87
2022/04/22 05:06:12;;;;;;;;;;;;;;;3.23;94.66;97488.03;3223209;23;20001;-87
2022/04/22 05:07:27;;;;;;;;;;;;;;;3.28;94.67;97495.75;3223380;22;19927;-83
2022/04/22 05:08:43;;;;;;;;;;;;;;;3.31;94.55;97491.38;3223602;23;19934;-84
2022/04/22 05:09:58;;;;;;;;;;;;;;;3.36;94.40;97496.50;3223409;23;20406;-83
2022/04/22 05:11:13;;;;;;;;;;;;;;;3.36;94.45;97489.56;3223653;23;19927;-83
2022/04/22 05:12:29;;;;;;;;;;;;;;;3.39;94.25;97492.09;3223435;23;19923;-83
2022/04/22 05:13:44;;;;;;;;;;;;;;;3.46;94.10;97490.28;3223758;23;20235;-83
2022/04/22 05:15:00;;;;;;;;;;;;;;;3.56;93.93;97488.41;3222563;23;20410;-82
2022/04/22 05:16:15;;;;;;;;;;;;;;;3.62;93.35;97490.06;3223694;23;19923;-82
2022/04/22 05:17:31;;;;;;;;;;;;;;;3.66;92.77;97489.16;3223823;22;20299;-84
2022/04/22 05:18:46;;;;;;;;;;;;;;;3.72;93.08;97486.44;3223459;23;19923;-84
2022/04/22 05:20:02;;;;;;;;;;;;;;;3.77;92.79;97489.84;3223066;22;19986;-82
2022/04/22 05:21:17;;;;;;;;;;;;;;;3.83;93.18;97493.19;3223575;22;19923;-83
2022/04/22 05:22:33;;;;;;;;;;;;;;;3.82;92.75;97487.16;3223482;23;20312;-82
2022/04/22 05:23:49;;;;;;;;;;;;;;;3.93;92.93;97487.84;3223565;23;19919;-83
2022/04/22 05:25:04;;;;;;;;;;;;;;;3.98;92.52;97492.06;3223620;22;19930;-85
2022/04/22 05:26:24;;;;;;;;;;;;;;;4.08;92.08;97488.44;3223167;22;20361;-82
2022/04/22 05:27:39;;;;;;;;;;;;;;;4.10;91.83;97491.88;3223485;22;19938;-83
2022/04/22 05:28:55;;;;;;;;;;;;;;;4.13;91.63;97493.56;3223554;22;19930;-83
2022/04/22 05:33:23;;;;;;;;;;;;;;;4.27;91.78;97494.16;3224944;23;20369;-83
2022/04/22 05:34:38;;;;;;;;;;;;;;;4.29;91.72;97486.38;3224936;23;19924;-83
2022/04/22 05:35:54;;;;;;;;;;;;;;;4.33;91.14;97483.72;3224727;23;19931;-85
2022/04/22 05:37:09;;;;;;;;;;;;;;;4.37;90.70;97490.53;3229751;23;19924;-84
2022/04/22 05:38:25;;;;;;;;;;;;;;;4.40;90.12;97479.25;3224644;23;19923;-83
2022/04/22 05:39:43;;;;;;;;;;;;;;;4.46;89.92;97483.44;3224508;22;19935;-83
2022/04/22 05:40:58;;;;;;;;;;;;;;;4.51;90.02;97476.47;3224010;22;19927;-83
2022/04/22 05:42:14;;;;;;;;;;;;;;;4.60;89.97;97476.25;3224183;23;20416;-85
2022/04/22 05:43:29;;;;;;;;;;;;;;;4.64;89.65;97475.34;3223701;22;19950;-89
2022/04/22 05:44:44;;;;;;;;;;;;;;;4.72;89.65;97470.00;3224197;23;20354;-88
2022/04/22 05:46:00;;;;;;;;;;;;;;;4.86;88.92;97472.28;3223916;23;19923;-82
2022/04/22 05:47:15;;;;;;;;;;;;;;;4.88;88.64;97473.13;3224046;23;20330;-82
2022/04/22 05:48:31;;;;;;;;;;;;;;;4.97;88.37;97463.44;3224012;22;19927;-82
2022/04/22 05:49:46;;;;;;;;;;;;;;;5.00;87.91;97459.06;3223928;23;20350;-82
2022/04/22 05:51:01;;;;;;;;;;;;;;;5.08;87.89;97461.47;3224385;23;19919;-81
2022/04/22 05:52:17;;;;;;;;;;;;;;;5.12;87.49;97470.06;3224864;23;19982;-82
2022/04/22 05:53:32;;;;;;;;;;;;;;;5.20;86.89;97473.31;3224849;23;19998;-82
2022/04/22 05:54:48;;;;;;;;;;;;;;;5.27;86.94;97471.44;3224531;23;19923;-82
2022/04/22 05:56:03;;;;;;;;;;;;;;;5.32;86.91;97478.25;3224723;23;19931;-84
2022/04/22 05:57:19;;;;;;;;;;;;;;;5.35;86.82;97477.34;3224844;22;19923;-83
2022/04/22 05:58:34;;;;;;;;;;;;;;;5.38;86.16;97474.66;3224937;22;19928;-82
2022/04/22 05:59:50;;;;;;;;;;;;;;;5.46;85.67;97471.88;3224573;22;19919;-86
2022/04/22 06:01:05;;;;;;;;;;;;;;;5.50;85.89;97471.78;3225102;23;19982;-83
2022/04/22 06:02:21;;;;;;;;;;;;;;;5.60;85.00;97474.19;3224682;22;19923;-83
2022/04/22 06:03:36;;;;;;;;;;;;;;;5.69;84.20;97473.09;3224933;23;19977;-86
2022/04/22 06:04:52;;;;;;;;;;;;;;;5.73;84.09;97472.13;3224130;23;19924;-83
2022/04/22 06:06:07;;;;;;;;;;;;;;;5.72;84.08;97473.84;3224881;22;19924;-83
2022/04/22 06:07:23;;;;;;;;;;;;;;;5.75;84.22;97475.53;3224498;23;19967;-83
2022/04/22 06:10:32;;;;;;;;;;;;;;;5.91;83.26;97463.03;3224692;23;19931;-83
2022/04/22 06:11:47;;;;;;;;;;;;;;;6.00;82.22;97459.34;3229887;22;19931;-82
2022/04/22 06:13:03;;;;;;;;;;;;;;;6.05;82.07;97460.97;3224792;23;19931;-83
2022/04/22 06:14:19;;;;;;;;;;;;;;;6.10;81.94;97462.59;3224971;22;20041;-83
2022/04/22 06:15:34;;;;;;;;;;;;;;;6.12;82.13;97463.41;3224932;22;20258;-82
2022/04/22 06:16:50;;;;;;;;;;;;;;;6.18;82.10;97464.09;3224412;22;19920;-83
2022/04/22 06:18:05;;;;;;;;;;;;;;;6.22;81.87;97465.75;3229515;23;19990;-82
2022/04/22 06:19:21;;;;;;;;;;;;;;;6.30;82.01;97456.88;3225088;23;20787;-82
2022/04/22 06:20:36;;;;;;;;;;;;;;;6.41;81.17;97456.56;3224679;23;19924;-82
2022/04/22 06:21:51;;;;;;;;;;;;;;;6.46;80.78;97459.91;3225261;23;20306;-84
2022/04/22 06:23:07;;;;;;;;;;;;;;;6.51;80.51;97452.84;3224807;23;19924;-82
2022/04/22 06:24:22;;;;;;;;;;;;;;;6.53;79.77;97453.63;3224323;22;19992;-82
2022/04/22 06:25:39;;;;;;;;;;;;;;;6.56;79.62;97458.75;3224890;23;19930;-82
2022/04/22 06:26:54;;;;;;;;;;;;;;;6.57;79.88;97457.00;3224664;22;20026;-83
2022/04/22 06:28:09;;;;;;;;;;;;;;;6.68;79.88;97457.56;3224709;23;20350;-85
2022/04/22 06:29:25;;;;;;;;;;;;;;;6.82;79.42;97454.56;3224372;22;19928;-83
2022/04/22 06:30:41;;;;;;;;;;;;;;;6.89;79.12;97453.50;3224143;23;19950;-84
2022/04/22 06:31:56;;;;;;;;;;;;;;;7.01;78.68;97457.50;3224718;23;19927;-82
2022/04/22 06:33:12;;;;;;;;;;;;;;;7.09;78.87;97452.06;3224400;22;19927;-82
2022/04/22 06:34:28;;;;;;;;;;;;;;;7.17;77.31;97457.03;3224817;22;20350;-84
2022/04/22 06:35:43;;;;;;;;;;;;;;;7.15;77.57;97458.81;3224582;23;19928;-83
2022/04/22 06:36:59;;;;;;;;;;;;;;;7.23;77.65;97463.81;3224101;22;19980;-83
2022/04/22 06:38:16;;;;;;;;;;;;;;;7.26;77.46;97458.50;3224744;23;19924;-84
2022/04/22 06:45:46;;;;;;;;;;;;;;;7.37;77.01;97453.81;3224530;22;19928;-84
2022/04/22 06:45:50;;;;;;;;;;;;;;;7.38;76.91;97455.50;3229628;23;19923;-82
2022/04/22 06:47:06;;;;;;;;;;;;;;;7.45;77.04;97459.66;3224586;22;19981;-81
2022/04/22 06:48:22;;;;;;;;;;;;;;;7.49;76.67;97458.66;3224672;22;19991;-82
2022/04/22 06:49:37;;;;;;;;;;;;;;;7.48;75.78;97450.91;3224650;23;19924;-82
2022/04/22 06:50:53;;;;;;;;;;;;;;;7.43;75.87;97452.78;3225004;22;19927;-86
2022/04/22 06:52:09;;;;;;;;;;;;;;;7.39;75.94;97449.41;3224850;23;19930;-84
2022/04/22 06:53:25;;;;;;;;;;;;;;;7.40;76.79;97458.09;3224360;22;19928;-82
2022/04/22 06:54:40;;;;;;;;;;;;;;;7.38;76.57;97450.31;3224649;22;20002;-85
2022/04/22 06:55:58;;;;;;;;;;;;;;;7.41;75.39;97445.03;3224325;22;19923;-82
2022/04/22 06:57:14;;;;;;;;;;;;;;;7.53;75.83;97443.78;3224285;22;20281;-84
2022/04/22 06:58:31;;;;;;;;;;;;;;;7.59;75.42;97440.13;3224514;22;19923;-82
2022/04/22 06:59:46;;;;;;;;;;;;;;;7.70;74.49;97435.44;3224502;22;19994;-82
2022/04/22 07:01:01;;;;;;;;;;;;;;;7.77;74.66;97431.69;3224664;23;19930;-85
2022/04/22 07:02:17;;;;;;;;;;;;;;;7.85;73.24;97433.22;3224726;23;19946;-83
2022/04/22 07:03:32;;;;;;;;;;;;;;;7.90;73.88;97432.16;3224707;23;19931;-83
2022/04/22 07:04:50;;;;;;;;;;;;;;;8.05;72.78;97429.94;3224258;23;19923;-82
2022/04/22 07:06:06;;;;;;;;;;;;;;;8.14;73.22;97423.56;3224440;22;20338;-82
2022/04/22 07:07:22;;;;;;;;;;;;;;;8.20;73.09;97418.97;3224873;22;19924;-83
2022/04/22 07:08:37;;;;;;;;;;;;;;;8.31;72.79;97417.72;3224296;23;19928;-83
2022/04/22 07:09:52;;;;;;;;;;;;;;;8.35;72.31;97421.94;3224316;23;19986;-83
2022/04/22 07:11:10;;;;;;;;;;;;;;;8.47;71.80;97418.03;3224468;22;20334;-82
2022/04/22 07:12:26;;;;;;;;;;;;;;;8.58;70.88;97423.75;3224090;23;19920;-82
2022/04/22 07:13:43;;;;;;;;;;;;;;;8.60;70.75;97421.94;3224399;22;19924;-87
2022/04/22 07:15:06;;;;;;;;;;;;;;;8.59;70.25;97406.34;3224858;22;20018;-83